• Join FlightAware (Why Join?)
  • Login
  • US Flag 
04:50AM EDT


 

Airport Tracker/Info


-or-


 

Live Flight TrackerFlight Track Log ✈ ASQ4253 ✈ 22-07-2013 ✈ KCAE - KIAH

Flight Track Log - Related Links

Times and Time Zones

All times are in EDT time to prevent confusion due to time zone crossing. See the ASQ4253 flight status page for this flight to view local times or setup timezone preferences in your user account.

Time Position Orientation Groundspeed Altitude Reporting Facility
EDT Latitude Longitude Course Direction KTS MPH feet Rate Location/Type
05:26PM 34.0008 -81.2442 309° West 228 262 3,700  Level Jacksonville Center
05:27PM 34.2050 -81.3107 329° Northwest  Level FlightAware Approximate
05:27PM 34.0436 -81.3111 308° West 246 283 5,700  Level Jacksonville Center
05:28PM 34.2956 -81.3758 328° Northwest  Level FlightAware Approximate
05:28PM 34.1108 -81.3500 334° Northwest 254 292 7,600  Level Jacksonville Center
05:29PM 34.3852 -81.4430 328° Northwest  Level FlightAware Approximate
05:30PM 34.4742 -81.5114 327° Northwest  Level FlightAware Approximate
05:30PM 34.2719 -81.4522 332° Northwest 281 323 11,400  Level Atlanta Center
05:31PM 34.3544 -81.5025 333° Northwest 301 346 12,300 960 Climbing Atlanta Center
05:32PM 34.4411 -81.5578 332° Northwest 327 376 13,400 1,260 Climbing Atlanta Center
05:33PM 34.5258 -81.6083 334° Northwest 338 389 14,900 1,500 Climbing Atlanta Center
05:34PM 34.6061 -81.6614 331° Northwest 338 389 16,400 1,560 Climbing Atlanta Center
05:35PM 34.6989 -81.7194 333° Northwest 333 383 18,100 1,560 Climbing Atlanta Center
05:36PM 34.7792 -81.7728 331° Northwest 333 383 19,600 1,260 Climbing Atlanta Center
05:37PM 34.8617 -81.8239 333° Northwest 328 377 20,700 1,020 Climbing Atlanta Center
05:38PM 34.9461 -81.8772 333° Northwest 328 377 21,700 900 Climbing Atlanta Center
05:39PM 35.0117 -81.9339 325° Northwest 328 377 22,600 960 Climbing Atlanta Center
05:40PM 35.0344 -82.0450 284° West 319 367 23,700 1,020 Climbing Atlanta Center
05:41PM 35.0319 -82.1567 268° West 324 373 24,700 960 Climbing Atlanta Center
05:42PM 35.0297 -82.2783 269° West 332 382 25,700 960 Climbing Atlanta Center
05:43PM 35.0292 -82.3900 270° West 332 382 26,700 960 Climbing Atlanta Center
05:44PM 35.0264 -82.5042 268° West 331 381 27,700 960 Climbing Atlanta Center
05:45PM 35.0256 -82.6158 270° West 331 381 28,700 960 Climbing Atlanta Center
05:46PM 35.0228 -82.7275 268° West 336 387 29,700 960 Climbing Atlanta Center
05:47PM 35.0197 -82.8442 268° West 336 387 30,700 960 Climbing Atlanta Center
05:48PM 35.0186 -82.9558 269° West 336 387 31,700 960 Climbing Atlanta Center
05:49PM 35.0175 -83.0572 269° West 336 387 32,700 900 Climbing Atlanta Center
05:50PM 35.0161 -83.1714 269° West 336 387 33,600 780 Climbing Atlanta Center
05:51PM 35.0128 -83.2856 268° West 331 381 34,300 600 Climbing Atlanta Center
05:52PM 35.0114 -83.3947 269° West 331 381 34,900 300 Climbing Atlanta Center
05:53PM 35.0078 -83.5139 268° West 331 381 35,000  Climbing Atlanta Center
05:54PM 35.0042 -83.6433 268° West 361 415 35,000  Level Atlanta Center
05:55PM 35.0003 -83.7775 268° West 384 442 35,000  Level Atlanta Center
05:56PM 34.9964 -83.9169 268° West 407 468 35,000  Level Atlanta Center
05:57PM 34.9942 -84.0642 269° West 421 484 35,000  Level Atlanta Center
05:58PM 34.9900 -84.2086 268° West 427 491 35,000  Level Atlanta Center
05:59PM 34.9856 -84.3556 268° West 432 497 35,000  Level Atlanta Center
06:00PM 34.9808 -84.5053 268° West 438 504 35,000  Level Atlanta Center
06:01PM 34.9761 -84.6497 268° West 438 504 35,000  Level Atlanta Center
06:02PM 34.9711 -84.7967 268° West 438 504 35,000  Level Atlanta Center
06:03PM 34.9658 -84.9436 268° West 438 504 35,000 420 Level Atlanta Center
06:04PM 34.9625 -85.0981 269° West 438 504 35,900 480 Climbing Atlanta Center
06:05PM 34.9633 -85.2428 270° West 428 493 36,000  Climbing Atlanta Center
06:06PM 34.9681 -85.3897 272° West 428 493 36,000  Level Atlanta Center
06:07PM 34.9728 -85.5369 272° West 433 498 36,000  Level Atlanta Center
06:08PM 34.9769 -85.6814 272° West 438 504 36,000  Level Atlanta Center
06:09PM 34.9792 -85.8283 271° West 438 504 36,000  Level Atlanta Center
06:10PM 34.9833 -85.9756 272° West 438 504 36,000  Level Atlanta Center
06:11PM 34.9872 -86.1178 272° West 438 504 36,000  Level Atlanta Center
06:12PM 34.9911 -86.2572 272° West 422 486 36,000  Level Atlanta Center
06:13PM 34.9947 -86.3992 272° West 422 486 36,000  Level Atlanta Center
06:15PM 34.9972 -86.6333 271° West 422 486 36,000  Level Memphis Center
06:16PM 35.0014 -86.7725 272° West 427 491 36,000  Level Memphis Center
06:17PM 35.0011 -86.9144 270° West 427 491 36,000  Level Memphis Center
06:18PM 35.0050 -87.0539 272° West 413 475 36,000  Level Memphis Center
06:19PM 35.0044 -87.1933 270° West 418 481 36,000  Level Memphis Center
06:20PM 35.0081 -87.3325 272° West 418 481 36,000  Level Memphis Center
06:21PM 35.0092 -87.4769 271° West 418 481 36,000  Level Memphis Center
06:22PM 35.0125 -87.6164 272° West 418 481 36,000  Level Memphis Center
06:23PM 35.0153 -87.7531 271° West 417 480 36,000  Level Memphis Center
06:24PM 35.0203 -87.8875 273° West 411 473 36,000  Level Memphis Center
06:25PM 35.0183 -88.0092 269° West 404 465 36,000  Level Memphis Center
06:26PM 35.0169 -88.1486 269° West 409 471 36,000  Level Memphis Center
06:27PM 35.0172 -88.2956 270° West 422 486 36,000  Level Memphis Center
06:28PM 35.0194 -88.4350 271° West 422 486 36,000  Level Memphis Center
06:29PM 35.0194 -88.5719 270° West 412 474 36,000  Level Memphis Center
06:30PM 35.0192 -88.7089 270° West 412 474 36,000  Level Memphis Center
06:31PM 35.0192 -88.8636 270° West 419 482 36,000  Level Memphis Center
06:32PM 35.0186 -89.0056 270° West 419 482 36,000  Level Memphis Center
06:33PM 35.0203 -89.1475 271° West 419 482 36,000  Level Memphis Center
06:34PM 35.0194 -89.2922 270° West 419 482 36,000  Level Memphis Center
06:35PM 35.0206 -89.4367 271° West 424 488 36,000  Level Memphis Center
06:36PM 35.0217 -89.5836 271° West 424 488 36,000  Level Memphis Center
06:37PM 34.9806 -89.7108 249° West 411 473 36,000  Level Memphis Center
06:38PM 34.8642 -89.7725 203° Southwest 412 474 36,000  Level Memphis Center
06:39PM 34.7494 -89.8264 201° Southwest 424 488 36,000  Level Memphis Center
06:40PM 34.6331 -89.8878 203° Southwest 447 514 36,000  Level Memphis Center
06:41PM 34.5142 -89.9411 200° South 457 526 36,000  Level Memphis Center
06:42PM 34.3872 -89.9972 200° South 451 519 36,000  Level Memphis Center
06:43PM 34.2703 -90.0481 200° South 451 519 36,000  Level Memphis Center
06:44PM 34.1536 -90.0986 200° South 451 519 36,000  Level Memphis Center
06:45PM 34.0389 -90.1467 199° South 441 507 36,000  Level Memphis Center
06:46PM 33.9264 -90.1969 200° South 441 507 36,000  Level Memphis Center
06:47PM 33.8347 -90.2922 221° Southwest 434 499 36,000  Level Memphis Center
06:48PM 33.7678 -90.3872 230° Southwest 419 482 36,000  Level Memphis Center
06:49PM 33.6883 -90.4894 227° Southwest 419 482 36,000  Level Memphis Center
06:50PM 33.6089 -90.5967 228° Southwest 424 488 36,000  Level Memphis Center
06:51PM 33.5272 -90.7011 227° Southwest 424 488 36,000  Level Memphis Center
06:52PM 33.4478 -90.8028 227° Southwest 429 494 36,000  Level Memphis Center
06:53PM 33.3658 -90.9119 228° Southwest 429 494 36,000  Level Memphis Center
06:54PM 33.2819 -91.0208 227° Southwest 435 501 36,000  Level Memphis Center
06:55PM 33.2019 -91.1219 227° Southwest 435 501 36,000  Level Memphis Center
06:56PM 33.1136 -91.2378 228° Southwest 435 501 36,000  Level Memphis Center
06:57PM 33.0333 -91.3411 227° Southwest 435 501 36,000  Level Memphis Center
06:58PM 32.9533 -91.4467 228° Southwest 435 501 36,000  Level Memphis Center
06:59PM 32.8731 -91.5469 226° Southwest 435 501 36,000  Level Memphis Center
07:01PM 32.7239 -91.7344 227° Southwest 423 487 36,000  Level Fort Worth Center
07:02PM 32.6333 -91.8561 229° Southwest 430 495 36,000  Level Fort Worth Center
07:04PM 32.4442 -92.0886 226° Southwest 434 499 36,000  Level Houston Center
07:05PM 32.3631 -92.1911 227° Southwest 430 495 36,000  Level Houston Center
07:06PM 32.2808 -92.2942 227° Southwest 432 497 36,000  Level Houston Center
07:07PM 32.1972 -92.3989 227° Southwest 440 506 36,000  Level Houston Center
07:08PM 32.0950 -92.5261 227° Southwest 446 513 36,000  Level Houston Center
07:09PM 32.0086 -92.6325 226° Southwest 450 518 36,000  Level Houston Center
07:10PM 31.9153 -92.7336 223° Southwest 454 522 36,000  Level Houston Center
07:12PM 31.8189 -92.8261 219° Southwest 451 519 36,000  Level Houston Center
07:13PM 31.7225 -92.9214 220° Southwest 454 522 36,000  Level Houston Center
07:14PM 31.6250 -93.0144 219° Southwest 454 522 36,000  Level Houston Center
07:15PM 31.5278 -93.1078 219° Southwest 453 521 36,000  Level Houston Center
07:16PM 31.4117 -93.2197 219° Southwest 451 519 36,000  Level Houston Center
07:17PM 31.3247 -93.3017 219° Southwest 447 514 36,000 -300 Level Houston Center
07:18PM 31.2197 -93.4006 219° Southwest 443 510 35,400 -1,020 Descending Houston Center
07:19PM 31.1256 -93.4911 219° Southwest 439 505 34,000 -1,620 Descending Houston Center
07:20PM 31.0300 -93.5819 219° Southwest 444 511 32,100 -2,160 Descending Houston Center
07:21PM 30.9347 -93.6725 219° Southwest 446 513 29,600 -2,640 Descending Houston Center
07:22PM 30.8208 -93.7808 219° Southwest 444 511 26,700 -2,640 Descending Houston Center
07:23PM 30.7283 -93.8672 219° Southwest 431 496 24,200 -2,400 Descending Houston Center
07:24PM 30.6419 -93.9483 219° Southwest 411 473 21,800 -2,520 Descending Houston Center
07:24PM 30.5939 -93.9917 218° Southwest 385 443 20,400 -2,460 Descending Houston Center
07:25PM 30.5600 -94.0250 220° Southwest 391 450 19,300 -2,280 Descending Houston Center
07:26PM 30.4828 -94.0972 219° Southwest 369 425 16,900 -2,640 Descending Houston Center
07:27PM 30.4269 -94.1500 219° Southwest 346 398 15,000 -2,700 Descending Houston Center
07:28PM 30.3650 -94.2239 226° Southwest 327 376 12,600 -1,500 Descending Houston Center
07:29PM 30.3156 -94.3175 239° Southwest 320 368 12,000 -300 Descending Houston Center
07:30PM 30.2678 -94.4086 239° Southwest 321 369 12,000 -420 Level Houston Center
07:31PM 30.2250 -94.4867 238° Southwest 262 302 11,200 -1,320 Descending Houston Center
07:32PM 30.1903 -94.5614 242° Southwest 270 311 9,400 -1,620 Descending Houston Center
07:32PM 30.1767 -94.5914 242° Southwest 268 308 8,800 -1,920 Descending Houston Center
07:33PM 30.1517 -94.6389 239° Southwest 265 305 7,500 -1,800 Descending Houston Center
07:33PM 30.1408 -94.6647 244° Southwest 264 304 7,000 -1,680 Descending Houston Center
07:34PM 30.1167 -94.7111 239° Southwest 258 297 5,800 -1,800 Descending Houston Center
07:34PM 30.1058 -94.7364 244° Southwest 259 298 5,200 -1,920 Descending Houston Center
07:35PM 30.0797 -94.7858 239° Southwest 255 293 3,900 -1,800 Descending Houston Center
07:35PM 30.0703 -94.8075 243° Southwest 257 296 3,400 -540 Descending Houston Center
07:36PM 30.0333 -94.8906 243° Southwest 246 283 3,100 -180 Descending Houston Center
07:37PM 30.0000 -94.9608 241° Southwest 249 287 3,100  Level Houston Center
07:38PM 29.9786 -95.0361 252° West 254 292 3,100  Level Houston Center
07:39PM 29.9778 -95.1158 269° West 252 290 3,100  Level Houston Center